Time;durP1;ratioP1;P1;durP2;ratioP2;P2;SDS_P1;SDS_P2;PMS_P1;PMS_P2;Temp;Humidity;BMP_temperature;BMP_pressure;BME280_temperature;BME280_humidity;BME280_pressure;Samples;Min_cycle;Max_cycle;Signal;HPM_P1;HPM_P2
2023/08/02 00:01:49;;;;;;;2.10;1.73;;;;;;;;;;5075654;28;20217;-70
2023/08/02 00:04:16;;;;;;;3.65;2.00;;;;;;;;;;5080723;28;20198;-66
2023/08/02 00:06:44;;;;;;;3.65;1.90;;;;;;;;;;5075949;28;20232;-64
2023/08/02 00:09:11;;;;;;;1.77;1.67;;;;;;;;;;5076291;28;20221;-67
2023/08/02 00:11:39;;;;;;;2.30;1.88;;;;;;;;;;5079016;28;20282;-65
2023/08/02 00:14:06;;;;;;;3.92;1.80;;;;;;;;;;5082258;28;20196;-66
2023/08/02 00:16:33;;;;;;;2.55;2.35;;;;;;;;;;5078561;28;20212;-67
2023/08/02 00:19:01;;;;;;;2.28;1.88;;;;;;;;;;5083890;28;20220;-66
2023/08/02 00:21:28;;;;;;;2.47;1.73;;;;;;;;;;5079540;28;20225;-67
2023/08/02 00:23:55;;;;;;;2.30;2.00;;;;;;;;;;5067890;28;20197;-71
2023/08/02 00:26:23;;;;;;;2.20;2.00;;;;;;;;;;5073166;28;20206;-65
2023/08/02 00:28:50;;;;;;;2.03;1.83;;;;;;;;;;5068115;28;20221;-66
2023/08/02 00:31:17;;;;;;;2.30;2.10;;;;;;;;;;5080661;28;20213;-67
2023/08/02 00:33:45;;;;;;;3.95;2.20;;;;;;;;;;5088513;22;20201;-78
2023/08/02 00:36:12;;;;;;;4.63;2.40;;;;;;;;;;5083302;28;20235;-79
2023/08/02 00:38:39;;;;;;;3.42;2.13;;;;;;;;;;5074493;28;20304;-77
2023/08/02 00:41:07;;;;;;;2.60;2.28;;;;;;;;;;5080670;28;20276;-76
2023/08/02 00:43:44;;;;;;;5.72;2.33;;;;;;;;;;5060360;28;20251;-77
2023/08/02 00:46:13;;;;;;;2.40;2.00;;;;;;;;;;5057757;28;20205;-78
2023/08/02 00:48:41;;;;;;;2.53;2.15;;;;;;;;;;5067611;28;20201;-77
2023/08/02 00:51:12;;;;;;;3.28;2.05;;;;;;;;;;5057720;28;20653;-76
2023/08/02 00:53:39;;;;;;;2.22;2.03;;;;;;;;;;5060367;28;20201;-78
2023/08/02 00:56:07;;;;;;;3.60;1.70;;;;;;;;;;5057882;28;20652;-77
2023/08/02 00:58:34;;;;;;;3.58;2.00;;;;;;;;;;5045633;28;20210;-77
2023/08/02 01:01:06;;;;;;;2.22;2.03;;;;;;;;;;5058290;28;20291;-78
2023/08/02 01:03:35;;;;;;;2.88;2.03;;;;;;;;;;5062192;28;20193;-78
2023/08/02 01:06:09;;;;;;;2.67;1.87;;;;;;;;;;5065681;28;20243;-77
2023/08/02 01:08:39;;;;;;;2.20;2.00;;;;;;;;;;5058065;28;20196;-77
2023/08/02 01:11:19;;;;;;;1.77;1.67;;;;;;;;;;5057119;28;20225;-80
2023/08/02 01:13:54;;;;;;;3.10;1.85;;;;;;;;;;5064014;28;20251;-78
2023/08/02 01:16:23;;;;;;;2.83;2.40;;;;;;;;;;5062159;28;20271;-78
2023/08/02 01:19:00;;;;;;;4.38;1.85;;;;;;;;;;5052296;28;20202;-78
2023/08/02 01:21:27;;;;;;;2.30;2.10;;;;;;;;;;5058427;28;20645;-79
2023/08/02 01:23:55;;;;;;;2.17;2.00;;;;;;;;;;5053862;28;20295;-77
2023/08/02 01:26:22;;;;;;;3.55;2.13;;;;;;;;;;5064700;28;20233;-76
2023/08/02 01:28:52;;;;;;;3.67;2.40;;;;;;;;;;5061241;28;20213;-77
2023/08/02 01:31:21;;;;;;;4.07;2.40;;;;;;;;;;5061747;28;20252;-78
2023/08/02 01:33:53;;;;;;;2.03;1.88;;;;;;;;;;5059959;28;20202;-78
2023/08/02 01:36:20;;;;;;;4.68;2.22;;;;;;;;;;5056691;28;20202;-79
2023/08/02 01:38:48;;;;;;;2.40;2.20;;;;;;;;;;5061305;28;20201;-77
2023/08/02 01:41:15;;;;;;;3.27;2.07;;;;;;;;;;5066998;28;20654;-78
2023/08/02 01:43:42;;;;;;;2.13;2.00;;;;;;;;;;5045145;28;20194;-76
2023/08/02 01:46:09;;;;;;;3.38;2.20;;;;;;;;;;5063031;28;20267;-78
2023/08/02 01:48:37;;;;;;;2.73;2.30;;;;;;;;;;5059708;28;20255;-76
2023/08/02 01:51:04;;;;;;;3.00;2.03;;;;;;;;;;5058266;28;20226;-77
2023/08/02 01:53:31;;;;;;;2.83;1.98;;;;;;;;;;5040002;28;20263;-78
2023/08/02 01:55:58;;;;;;;2.58;2.20;;;;;;;;;;5062560;28;20202;-77
2023/08/02 01:58:25;;;;;;;5.07;2.30;;;;;;;;;;5059702;28;20256;-78
2023/08/02 02:00:52;;;;;;;4.63;2.58;;;;;;;;;;5057251;28;20277;-77
2023/08/02 02:03:20;;;;;;;3.00;2.30;;;;;;;;;;5056909;28;20206;-79
2023/08/02 02:05:53;;;;;;;2.70;1.95;;;;;;;;;;5058837;28;20202;-76
2023/08/02 02:08:21;;;;;;;3.75;2.20;;;;;;;;;;5047684;28;20206;-78
2023/08/02 02:10:49;;;;;;;3.87;2.20;;;;;;;;;;5050881;28;20232;-76
2023/08/02 02:13:20;;;;;;;4.87;2.20;;;;;;;;;;5048443;28;20224;-74
2023/08/02 02:15:47;;;;;;;4.67;2.10;;;;;;;;;;5060759;28;20700;-76
2023/08/02 02:18:14;;;;;;;5.33;2.37;;;;;;;;;;5060246;28;20263;-76
2023/08/02 02:20:42;;;;;;;2.43;2.23;;;;;;;;;;5049143;28;20264;-77
2023/08/02 02:23:09;;;;;;;3.10;2.40;;;;;;;;;;5062194;28;20722;-77
2023/08/02 02:25:36;;;;;;;6.07;2.53;;;;;;;;;;5055627;28;20572;-75
2023/08/02 02:28:03;;;;;;;5.97;2.27;;;;;;;;;;5044893;28;20238;-78
2023/08/02 02:30:30;;;;;;;2.63;2.40;;;;;;;;;;5062839;28;20219;-78
2023/08/02 02:32:58;;;;;;;3.93;2.60;;;;;;;;;;5047438;28;20221;-77
2023/08/02 02:35:26;;;;;;;3.83;2.73;;;;;;;;;;5056532;28;20670;-77
2023/08/02 02:37:55;;;;;;;3.13;2.37;;;;;;;;;;5063065;28;20651;-79
2023/08/02 02:40:22;;;;;;;3.30;2.73;;;;;;;;;;5066933;28;20623;-78
2023/08/02 02:42:49;;;;;;;2.60;2.40;;;;;;;;;;5066520;28;20253;-79
2023/08/02 02:45:16;;;;;;;3.30;2.60;;;;;;;;;;5049377;28;20198;-79
2023/08/02 02:47:43;;;;;;;3.97;2.13;;;;;;;;;;5057083;28;20279;-78
2023/08/02 02:50:11;;;;;;;2.73;2.30;;;;;;;;;;5067300;28;20510;-76
2023/08/02 02:52:40;;;;;;;3.27;2.47;;;;;;;;;;5044445;28;20218;-77
2023/08/02 02:55:11;;;;;;;3.33;2.63;;;;;;;;;;5059607;28;20624;-78
2023/08/02 02:57:39;;;;;;;6.70;2.60;;;;;;;;;;5059661;28;20201;-78
2023/08/02 03:00:06;;;;;;;3.80;2.80;;;;;;;;;;5060061;28;20206;-77
2023/08/02 03:02:33;;;;;;;3.47;2.60;;;;;;;;;;5044808;28;20746;-80
2023/08/02 03:05:00;;;;;;;3.20;2.90;;;;;;;;;;5062304;28;20208;-78
2023/08/02 03:07:28;;;;;;;3.60;2.65;;;;;;;;;;5065783;28;20469;-76
2023/08/02 03:09:55;;;;;;;3.10;2.80;;;;;;;;;;5059481;28;20759;-80
2023/08/02 03:12:23;;;;;;;6.60;2.65;;;;;;;;;;5054197;28;20221;-79
2023/08/02 03:14:50;;;;;;;2.95;2.65;;;;;;;;;;5058103;28;20716;-78
2023/08/02 03:17:18;;;;;;;3.92;2.80;;;;;;;;;;5061947;28;20212;-77
2023/08/02 03:19:46;;;;;;;6.25;2.50;;;;;;;;;;5057749;28;20210;-79
2023/08/02 03:22:13;;;;;;;3.10;2.80;;;;;;;;;;5056305;28;20229;-78
2023/08/02 03:24:40;;;;;;;7.38;2.80;;;;;;;;;;5067966;28;20690;-78
2023/08/02 03:27:07;;;;;;;4.13;2.67;;;;;;;;;;5061855;28;20240;-78
2023/08/02 03:29:35;;;;;;;3.47;2.88;;;;;;;;;;5036418;28;20254;-79
2023/08/02 03:32:03;;;;;;;5.28;2.90;;;;;;;;;;5062721;28;20229;-78
2023/08/02 03:34:30;;;;;;;5.22;3.20;;;;;;;;;;5051819;28;20655;-77
2023/08/02 03:36:57;;;;;;;5.03;3.03;;;;;;;;;;5061394;28;20276;-77
2023/08/02 03:39:27;;;;;;;3.75;3.30;;;;;;;;;;5054612;28;20240;-77
2023/08/02 03:41:55;;;;;;;4.13;3.10;;;;;;;;;;5056210;28;20633;-76
2023/08/02 03:44:22;;;;;;;4.85;3.85;;;;;;;;;;5058623;28;20197;-76
2023/08/02 03:46:49;;;;;;;5.57;3.50;;;;;;;;;;5062054;28;20262;-78
2023/08/02 03:49:17;;;;;;;5.88;3.90;;;;;;;;;;5057519;28;21235;-79
2023/08/02 03:51:46;;;;;;;5.22;4.00;;;;;;;;;;5042871;28;20265;-78
2023/08/02 03:54:14;;;;;;;4.50;3.75;;;;;;;;;;5061453;28;20216;-78
2023/08/02 03:56:42;;;;;;;5.25;3.97;;;;;;;;;;5047996;28;20206;-77
2023/08/02 03:59:10;;;;;;;4.97;3.83;;;;;;;;;;5047145;28;20235;-78
2023/08/02 04:01:37;;;;;;;6.00;4.30;;;;;;;;;;5049689;28;20299;-76
2023/08/02 04:04:05;;;;;;;4.65;4.13;;;;;;;;;;5047813;28;20205;-76
2023/08/02 04:06:33;;;;;;;10.90;6.47;;;;;;;;;;5050828;28;20630;-75
2023/08/02 04:09:00;;;;;;;9.25;6.75;;;;;;;;;;5058146;28;20288;-78
2023/08/02 04:11:27;;;;;;;6.60;5.18;;;;;;;;;;5056708;28;20267;-77
2023/08/02 04:13:55;;;;;;;5.97;5.38;;;;;;;;;;5062198;28;20213;-77
2023/08/02 04:16:22;;;;;;;6.97;5.28;;;;;;;;;;5068563;28;20213;-79
2023/08/02 04:18:49;;;;;;;7.63;4.90;;;;;;;;;;5062977;28;20253;-79
2023/08/02 04:21:18;;;;;;;5.85;4.28;;;;;;;;;;5062678;28;20303;-78
2023/08/02 04:23:45;;;;;;;7.60;4.70;;;;;;;;;;5065201;28;20206;-79
2023/08/02 04:26:12;;;;;;;6.80;4.95;;;;;;;;;;5072383;28;20290;-78
2023/08/02 04:28:39;;;;;;;5.05;4.55;;;;;;;;;;5071449;28;20225;-78
2023/08/02 04:31:07;;;;;;;5.40;4.88;;;;;;;;;;5068141;28;20275;-78
2023/08/02 04:33:34;;;;;;;5.40;4.80;;;;;;;;;;5062644;28;20206;-76
2023/08/02 04:36:01;;;;;;;7.78;5.13;;;;;;;;;;5060599;28;20233;-76
2023/08/02 04:38:29;;;;;;;5.53;5.00;;;;;;;;;;5047151;28;20631;-77
2023/08/02 04:40:57;;;;;;;6.85;5.68;;;;;;;;;;5063759;28;20719;-79
2023/08/02 04:43:24;;;;;;;6.95;5.60;;;;;;;;;;5062289;28;20229;-76
2023/08/02 04:45:51;;;;;;;7.13;6.15;;;;;;;;;;5061630;28;20294;-78
2023/08/02 04:48:19;;;;;;;10.02;6.03;;;;;;;;;;5063067;28;20197;-77
2023/08/02 04:50:46;;;;;;;9.00;6.07;;;;;;;;;;5062494;28;20209;-78
2023/08/02 04:53:13;;;;;;;9.05;6.22;;;;;;;;;;5066865;28;20585;-80
2023/08/02 04:55:41;;;;;;;10.55;6.47;;;;;;;;;;5060231;28;20543;-79
2023/08/02 04:58:09;;;;;;;7.68;6.32;;;;;;;;;;5045693;28;20254;-78
2023/08/02 05:00:36;;;;;;;8.80;7.18;;;;;;;;;;5061692;28;20616;-77
2023/08/02 05:03:04;;;;;;;10.18;7.05;;;;;;;;;;5058348;28;20311;-78
2023/08/02 05:05:32;;;;;;;9.75;7.28;;;;;;;;;;5059289;28;20202;-76
2023/08/02 05:08:01;;;;;;;11.98;8.07;;;;;;;;;;5055362;28;20233;-77
2023/08/02 05:10:29;;;;;;;10.00;8.15;;;;;;;;;;5060025;28;20255;-75
2023/08/02 05:12:56;;;;;;;13.25;8.57;;;;;;;;;;5058486;28;20226;-77
2023/08/02 05:15:23;;;;;;;13.15;8.63;;;;;;;;;;5051639;28;20259;-79
2023/08/02 05:17:50;;;;;;;9.95;8.65;;;;;;;;;;5058727;28;20202;-78
2023/08/02 05:20:17;;;;;;;10.25;8.95;;;;;;;;;;5060338;28;20805;-78
2023/08/02 05:22:44;;;;;;;11.90;9.95;;;;;;;;;;5057930;28;20249;-78
2023/08/02 05:25:12;;;;;;;11.98;9.35;;;;;;;;;;5041271;28;20221;-77
2023/08/02 05:27:39;;;;;;;11.95;9.80;;;;;;;;;;5058312;28;20289;-78
2023/08/02 05:30:06;;;;;;;11.27;9.85;;;;;;;;;;5059666;28;20198;-78
2023/08/02 05:32:34;;;;;;;13.82;9.43;;;;;;;;;;5059407;28;20286;-77
2023/08/02 05:35:01;;;;;;;10.73;9.45;;;;;;;;;;5059552;28;20209;-78
2023/08/02 05:37:29;;;;;;;11.43;9.45;;;;;;;;;;5061400;28;20232;-76
2023/08/02 05:39:57;;;;;;;11.55;9.50;;;;;;;;;;5055458;28;20766;-78
2023/08/02 05:42:24;;;;;;;11.55;8.70;;;;;;;;;;5059689;28;20287;-79
2023/08/02 05:44:54;;;;;;;10.68;9.65;;;;;;;;;;5061562;28;20206;-79
2023/08/02 05:47:21;;;;;;;10.95;9.27;;;;;;;;;;5061440;28;20227;-76
2023/08/02 05:49:48;;;;;;;11.27;9.52;;;;;;;;;;5061692;28;20201;-77
2023/08/02 05:52:18;;;;;;;12.48;9.18;;;;;;;;;;5054221;28;20226;-78
2023/08/02 05:54:45;;;;;;;11.82;8.75;;;;;;;;;;5060148;28;20275;-76
2023/08/02 05:57:12;;;;;;;11.05;9.30;;;;;;;;;;5059943;28;21843;-78
2023/08/02 05:59:40;;;;;;;9.57;8.57;;;;;;;;;;5059816;28;20225;-79
2023/08/02 06:02:07;;;;;;;12.25;9.43;;;;;;;;;;5056194;28;20244;-77
2023/08/02 06:04:35;;;;;;;11.00;8.60;;;;;;;;;;5054468;28;20202;-77
2023/08/02 06:07:03;;;;;;;10.02;7.78;;;;;;;;;;5055174;28;20205;-76
2023/08/02 06:09:31;;;;;;;9.02;7.93;;;;;;;;;;5063739;28;20297;-77
2023/08/02 06:11:58;;;;;;;9.15;8.13;;;;;;;;;;5051854;28;20225;-77
2023/08/02 06:14:25;;;;;;;8.73;7.80;;;;;;;;;;5058778;28;20256;-78
2023/08/02 06:16:52;;;;;;;8.95;7.90;;;;;;;;;;5066666;28;20237;-78
2023/08/02 06:19:20;;;;;;;9.55;7.38;;;;;;;;;;5054223;28;20651;-79
2023/08/02 06:21:47;;;;;;;9.35;7.80;;;;;;;;;;5053017;28;20249;-77
2023/08/02 06:24:14;;;;;;;9.15;7.95;;;;;;;;;;5059098;28;20198;-78
2023/08/02 06:26:41;;;;;;;8.70;7.80;;;;;;;;;;5058326;28;20206;-77
2023/08/02 06:29:11;;;;;;;9.32;8.35;;;;;;;;;;5059347;28;20297;-78
2023/08/02 06:31:38;;;;;;;8.70;7.50;;;;;;;;;;5055815;28;20224;-78
2023/08/02 06:34:06;;;;;;;8.00;7.28;;;;;;;;;;5056207;28;20245;-79
2023/08/02 06:36:34;;;;;;;8.45;7.60;;;;;;;;;;5042769;28;20209;-78
2023/08/02 06:39:01;;;;;;;8.18;7.38;;;;;;;;;;5048430;28;20197;-79
2023/08/02 06:41:28;;;;;;;9.98;7.78;;;;;;;;;;5065291;28;20590;-76
2023/08/02 06:43:56;;;;;;;8.43;7.15;;;;;;;;;;5063771;28;20197;-75
2023/08/02 06:46:23;;;;;;;8.70;7.57;;;;;;;;;;5057359;28;20258;-76
2023/08/02 06:48:50;;;;;;;9.27;7.50;;;;;;;;;;5058801;28;20196;-76
2023/08/02 06:51:17;;;;;;;9.25;7.40;;;;;;;;;;5055944;28;20276;-77
2023/08/02 06:53:45;;;;;;;8.65;7.45;;;;;;;;;;5059044;28;20222;-79
2023/08/02 06:56:16;;;;;;;8.65;7.75;;;;;;;;;;5056295;28;20256;-75
2023/08/02 06:58:43;;;;;;;9.93;7.90;;;;;;;;;;5062105;28;20208;-77
2023/08/02 07:01:21;;;;;;;8.70;7.50;;;;;;;;;;5060470;28;20221;-76
2023/08/02 07:03:49;;;;;;;10.35;7.65;;;;;;;;;;5058449;28;20290;-77
2023/08/02 07:06:20;;;;;;;8.00;7.03;;;;;;;;;;5038750;28;20215;-78
2023/08/02 07:08:48;;;;;;;8.27;7.05;;;;;;;;;;5057394;28;20231;-77
2023/08/02 07:11:16;;;;;;;9.13;7.53;;;;;;;;;;5058990;28;20233;-77
2023/08/02 07:14:01;;;;;;;7.65;6.68;;;;;;;;;;5043690;28;20201;-78
2023/08/02 07:16:30;;;;;;;8.25;6.95;;;;;;;;;;5060057;28;20212;-78
2023/08/02 07:18:58;;;;;;;8.85;7.50;;;;;;;;;;5056765;28;20247;-78
2023/08/02 07:21:25;;;;;;;7.53;6.80;;;;;;;;;;5059298;28;20491;-76
2023/08/02 07:23:53;;;;;;;7.95;6.88;;;;;;;;;;5063861;28;20223;-77
2023/08/02 07:26:22;;;;;;;8.55;6.78;;;;;;;;;;5064864;28;20297;-77
2023/08/02 07:28:49;;;;;;;6.88;6.28;;;;;;;;;;5061599;28;20209;-77
2023/08/02 07:31:19;;;;;;;7.05;6.38;;;;;;;;;;5056399;28;20221;-77
2023/08/02 07:33:47;;;;;;;9.68;5.85;;;;;;;;;;5043038;28;20202;-75
2023/08/02 07:36:15;;;;;;;6.45;5.75;;;;;;;;;;5055136;28;20330;-77
2023/08/02 07:38:43;;;;;;;6.55;5.90;;;;;;;;;;5060347;28;20205;-78
2023/08/02 07:41:10;;;;;;;6.90;6.20;;;;;;;;;;5042446;28;20276;-78
2023/08/02 07:43:37;;;;;;;6.07;5.47;;;;;;;;;;5052556;28;20229;-78
2023/08/02 07:46:15;;;;;;;9.02;5.68;;;;;;;;;;5058580;28;20201;-78
2023/08/02 07:48:42;;;;;;;8.95;6.72;;;;;;;;;;5049181;28;21323;-76
2023/08/02 07:51:09;;;;;;;6.20;5.60;;;;;;;;;;5060979;28;20229;-77
2023/08/02 07:53:36;;;;;;;6.95;5.85;;;;;;;;;;5066430;28;20205;-78
2023/08/02 07:56:04;;;;;;;6.00;5.40;;;;;;;;;;5060630;28;20233;-77
2023/08/02 07:58:31;;;;;;;6.60;5.40;;;;;;;;;;5061627;28;20221;-78
2023/08/02 08:01:04;;;;;;;6.47;5.88;;;;;;;;;;5057016;28;20299;-77
2023/08/02 08:03:31;;;;;;;5.32;4.82;;;;;;;;;;5044648;28;20733;-76
2023/08/02 08:06:09;;;;;;;5.80;5.20;;;;;;;;;;5054793;28;20266;-75
2023/08/02 08:08:37;;;;;;;5.45;4.95;;;;;;;;;;5064706;28;20799;-78
2023/08/02 08:11:04;;;;;;;5.18;4.65;;;;;;;;;;5044811;28;20228;-77
2023/08/02 08:13:31;;;;;;;5.22;4.25;;;;;;;;;;5048622;28;20206;-78
2023/08/02 08:16:00;;;;;;;4.47;4.07;;;;;;;;;;5054854;28;20773;-78
2023/08/02 08:18:30;;;;;;;3.90;3.60;;;;;;;;;;5056505;28;20213;-77
2023/08/02 08:21:01;;;;;;;5.00;4.50;;;;;;;;;;5037587;28;20229;-79
2023/08/02 08:23:28;;;;;;;4.53;4.03;;;;;;;;;;5053562;28;20900;-77
2023/08/02 08:25:55;;;;;;;7.60;4.80;;;;;;;;;;5061325;28;20218;-76
2023/08/02 08:28:23;;;;;;;4.15;3.85;;;;;;;;;;5063533;28;20197;-78
2023/08/02 08:30:58;;;;;;;5.97;4.88;;;;;;;;;;5050582;28;20706;-79
2023/08/02 08:33:25;;;;;;;5.53;4.93;;;;;;;;;;5064083;28;20221;-77
2023/08/02 08:35:52;;;;;;;5.72;5.18;;;;;;;;;;5057306;28;20210;-78
2023/08/02 08:38:19;;;;;;;6.65;5.60;;;;;;;;;;5059820;28;20201;-79
2023/08/02 08:40:50;;;;;;;6.50;5.50;;;;;;;;;;5058017;28;20658;-78
2023/08/02 08:43:18;;;;;;;6.32;5.72;;;;;;;;;;5042465;28;20230;-77
2023/08/02 08:45:45;;;;;;;10.68;6.88;;;;;;;;;;5043127;28;20202;-77
2023/08/02 08:48:12;;;;;;;7.13;6.43;;;;;;;;;;5062423;28;20206;-77
2023/08/02 08:50:43;;;;;;;7.72;6.60;;;;;;;;;;5055028;28;20230;-79
2023/08/02 08:53:17;;;;;;;7.97;7.18;;;;;;;;;;5062610;28;20226;-77
2023/08/02 08:55:48;;;;;;;8.27;7.47;;;;;;;;;;5039558;28;20217;-77
2023/08/02 08:58:15;;;;;;;8.32;7.43;;;;;;;;;;5051603;28;20202;-78
2023/08/02 09:00:43;;;;;;;10.02;7.80;;;;;;;;;;5049319;28;20229;-77
2023/08/02 09:03:12;;;;;;;9.18;8.27;;;;;;;;;;5026746;28;20229;-78
2023/08/02 09:05:40;;;;;;;8.18;7.38;;;;;;;;;;5038907;28;20220;-76
2023/08/02 09:08:08;;;;;;;8.48;7.68;;;;;;;;;;5055815;28;20201;-78
2023/08/02 09:10:35;;;;;;;9.60;8.13;;;;;;;;;;5056548;28;20255;-78
2023/08/02 09:13:02;;;;;;;7.75;6.82;;;;;;;;;;5061080;28;20224;-77
2023/08/02 09:15:30;;;;;;;8.52;7.63;;;;;;;;;;5059429;28;20293;-77
2023/08/02 09:17:58;;;;;;;9.73;7.88;;;;;;;;;;5055604;28;20205;-79
2023/08/02 09:20:27;;;;;;;8.60;7.35;;;;;;;;;;5059629;28;20233;-78
2023/08/02 09:22:55;;;;;;;11.30;7.38;;;;;;;;;;5039003;28;20308;-78
2023/08/02 09:25:23;;;;;;;8.55;7.00;;;;;;;;;;5048247;28;20542;-78
2023/08/02 09:27:52;;;;;;;7.57;6.32;;;;;;;;;;5058400;28;20798;-78
2023/08/02 09:30:29;;;;;;;7.93;6.88;;;;;;;;;;5065928;28;20232;-77
2023/08/02 09:33:02;;;;;;;8.07;7.10;;;;;;;;;;5061792;28;20275;-77
2023/08/02 09:35:48;;;;;;;7.50;6.78;;;;;;;;;;5056456;28;20225;-80
2023/08/02 09:38:16;;;;;;;7.05;6.45;;;;;;;;;;5053038;28;20911;-77
2023/08/02 09:40:47;;;;;;;6.85;6.25;;;;;;;;;;5057506;28;20229;-77
2023/08/02 09:43:34;;;;;;;7.45;6.50;;;;;;;;;;5064032;28;20229;-78
2023/08/02 09:46:02;;;;;;;7.05;6.35;;;;;;;;;;5054195;28;20202;-78
2023/08/02 09:48:34;;;;;;;7.50;6.53;;;;;;;;;;5057086;28;20740;-78
2023/08/02 09:51:03;;;;;;;7.45;6.75;;;;;;;;;;5054611;28;20595;-77
2023/08/02 09:53:31;;;;;;;7.28;6.57;;;;;;;;;;5055934;28;20198;-78
2023/08/02 09:56:00;;;;;;;7.72;6.93;;;;;;;;;;5039832;28;20209;-78
2023/08/02 09:58:30;;;;;;;7.40;6.63;;;;;;;;;;5044811;28;20221;-77
2023/08/02 10:00:58;;;;;;;9.57;6.50;;;;;;;;;;5059254;28;20654;-77
2023/08/02 10:03:26;;;;;;;8.57;6.35;;;;;;;;;;5057913;28;20230;-76
2023/08/02 10:05:56;;;;;;;7.47;6.53;;;;;;;;;;5057703;28;20198;-76
2023/08/02 10:08:24;;;;;;;7.72;6.20;;;;;;;;;;5034543;28;20248;-76
2023/08/02 10:10:52;;;;;;;6.95;6.25;;;;;;;;;;5048449;28;20207;-78
2023/08/02 10:13:25;;;;;;;6.30;5.70;;;;;;;;;;5032323;28;20256;-77
2023/08/02 10:15:52;;;;;;;6.07;5.47;;;;;;;;;;5036537;28;20198;-77
2023/08/02 10:18:21;;;;;;;6.20;5.55;;;;;;;;;;5051721;28;20276;-76
2023/08/02 10:20:48;;;;;;;6.43;5.65;;;;;;;;;;5038531;28;20216;-78
2023/08/02 10:23:15;;;;;;;6.22;5.47;;;;;;;;;;5052901;28;20294;-77
2023/08/02 10:25:43;;;;;;;7.00;6.10;;;;;;;;;;5058207;28;20287;-77
2023/08/02 10:28:11;;;;;;;6.82;5.30;;;;;;;;;;5055293;28;20725;-77
2023/08/02 10:30:39;;;;;;;5.85;5.35;;;;;;;;;;5050393;28;20203;-75
2023/08/02 10:33:18;;;;;;;9.75;5.22;;;;;;;;;;5038728;28;20330;-76
2023/08/02 10:36:03;;;;;;;5.55;5.05;;;;;;;;;;5054520;28;20304;-79
2023/08/02 10:38:39;;;;;;;7.28;5.00;;;;;;;;;;5045699;28;20212;-76
2023/08/02 10:41:08;;;;;;;5.80;5.30;;;;;;;;;;5057992;28;20228;-76
2023/08/02 10:43:54;;;;;;;6.28;5.13;;;;;;;;;;5040633;28;20230;-75
2023/08/02 10:46:22;;;;;;;8.95;5.00;;;;;;;;;;5056236;28;20209;-78
2023/08/02 10:48:50;;;;;;;7.20;4.82;;;;;;;;;;5056852;28;20617;-78
2023/08/02 10:51:33;;;;;;;5.22;4.72;;;;;;;;;;5044528;28;20306;-78
2023/08/02 10:54:11;;;;;;;6.45;4.85;;;;;;;;;;5033889;28;20721;-76
2023/08/02 10:56:54;;;;;;;5.40;4.90;;;;;;;;;;5057273;28;20254;-78
2023/08/02 10:59:25;;;;;;;5.20;4.80;;;;;;;;;;5061169;28;20780;-77
2023/08/02 11:02:01;;;;;;;4.68;4.28;;;;;;;;;;5051861;28;20263;-77
2023/08/02 11:04:28;;;;;;;4.82;4.25;;;;;;;;;;5039250;28;20279;-77
2023/08/02 11:06:55;;;;;;;4.43;4.03;;;;;;;;;;5037331;28;20201;-77
2023/08/02 11:09:33;;;;;;;5.50;3.72;;;;;;;;;;5059406;28;20687;-76
2023/08/02 11:12:12;;;;;;;4.05;3.70;;;;;;;;;;5054438;28;20706;-78
2023/08/02 11:14:40;;;;;;;4.53;4.13;;;;;;;;;;5049753;28;20213;-78
2023/08/02 11:17:08;;;;;;;4.57;4.18;;;;;;;;;;5049672;28;20213;-78
2023/08/02 11:19:41;;;;;;;4.68;4.07;;;;;;;;;;5053440;28;20252;-77
2023/08/02 11:22:08;;;;;;;5.57;4.18;;;;;;;;;;5059991;28;20244;-77
2023/08/02 11:24:42;;;;;;;4.53;4.07;;;;;;;;;;5037388;28;20352;-76
2023/08/02 11:27:09;;;;;;;4.10;3.70;;;;;;;;;;5045161;28;20236;-79
2023/08/02 11:29:37;;;;;;;4.32;3.70;;;;;;;;;;5056126;28;20213;-78
2023/08/02 11:32:05;;;;;;;5.85;4.15;;;;;;;;;;5054646;28;20295;-79
2023/08/02 11:34:37;;;;;;;5.03;4.07;;;;;;;;;;5058342;28;20217;-76
2023/08/02 11:37:04;;;;;;;4.85;4.20;;;;;;;;;;5058882;28;20202;-79
2023/08/02 11:39:31;;;;;;;4.75;4.10;;;;;;;;;;5051225;28;20245;-77
2023/08/02 11:42:02;;;;;;;5.07;3.78;;;;;;;;;;5049315;28;20280;-78
2023/08/02 11:44:30;;;;;;;5.75;3.53;;;;;;;;;;5055314;28;20322;-78
2023/08/02 11:46:57;;;;;;;5.10;4.10;;;;;;;;;;5053800;28;20201;-77
2023/08/02 11:49:24;;;;;;;4.65;3.78;;;;;;;;;;5051993;28;20205;-76
2023/08/02 11:51:52;;;;;;;3.90;3.60;;;;;;;;;;5040864;28;20635;-77
2023/08/02 11:54:19;;;;;;;4.65;3.85;;;;;;;;;;5059200;28;20237;-78
2023/08/02 11:56:47;;;;;;;3.70;3.40;;;;;;;;;;5063288;28;20247;-75
2023/08/02 11:59:14;;;;;;;4.32;3.35;;;;;;;;;;5056706;28;20221;-79
2023/08/02 12:01:42;;;;;;;5.65;3.47;;;;;;;;;;5059867;28;20245;-79
2023/08/02 12:04:09;;;;;;;4.30;4.00;;;;;;;;;;5055873;28;20218;-77
2023/08/02 12:06:53;;;;;;;3.88;3.58;;;;;;;;;;5063762;28;20209;-78
2023/08/02 12:09:38;;;;;;;3.90;3.50;;;;;;;;;;5048707;28;20394;-77
2023/08/02 12:12:05;;;;;;;3.80;3.50;;;;;;;;;;5057376;28;20232;-78
2023/08/02 12:14:33;;;;;;;3.97;3.58;;;;;;;;;;5056131;28;20209;-77
2023/08/02 12:17:03;;;;;;;3.65;3.20;;;;;;;;;;5061176;28;20229;-77
2023/08/02 12:19:38;;;;;;;3.80;3.28;;;;;;;;;;5061341;28;20288;-79
2023/08/02 12:22:06;;;;;;;3.42;3.20;;;;;;;;;;5066200;28;20227;-77
2023/08/02 12:24:33;;;;;;;3.53;3.22;;;;;;;;;;5059805;28;20233;-79
2023/08/02 12:27:17;;;;;;;3.22;2.90;;;;;;;;;;5060894;28;20204;-78
2023/08/02 12:29:44;;;;;;;3.30;3.03;;;;;;;;;;5059652;28;20213;-76
2023/08/02 12:32:26;;;;;;;3.05;2.85;;;;;;;;;;5060406;28;20225;-79
2023/08/02 12:34:54;;;;;;;3.40;3.10;;;;;;;;;;5060824;28;20597;-78
2023/08/02 12:37:36;;;;;;;3.90;3.58;;;;;;;;;;5059150;28;20202;-75
2023/08/02 12:40:04;;;;;;;3.80;2.80;;;;;;;;;;5049483;28;20213;-77
2023/08/02 12:42:32;;;;;;;4.57;2.95;;;;;;;;;;5055115;28;20237;-77
2023/08/02 12:45:00;;;;;;;2.90;2.70;;;;;;;;;;5063745;28;20221;-78
2023/08/02 12:47:43;;;;;;;3.53;2.95;;;;;;;;;;5046123;28;20190;-78
2023/08/02 12:50:10;;;;;;;4.63;2.60;;;;;;;;;;5061343;28;20210;-77
2023/08/02 12:52:37;;;;;;;3.95;3.15;;;;;;;;;;5051082;28;20228;-77
2023/08/02 12:55:05;;;;;;;2.90;2.60;;;;;;;;;;5068201;28;20205;-77
2023/08/02 12:57:32;;;;;;;3.50;3.20;;;;;;;;;;5060314;28;20283;-80
2023/08/02 12:59:59;;;;;;;4.85;2.88;;;;;;;;;;5055458;28;20210;-79
2023/08/02 13:02:27;;;;;;;3.17;2.88;;;;;;;;;;5053436;28;20628;-76
2023/08/02 13:04:54;;;;;;;3.53;2.88;;;;;;;;;;5062772;28;20224;-79
2023/08/02 13:07:21;;;;;;;4.38;3.08;;;;;;;;;;5048264;28;20823;-77
2023/08/02 13:09:58;;;;;;;3.42;2.92;;;;;;;;;;5056547;28;20202;-77
2023/08/02 13:12:26;;;;;;;4.35;3.05;;;;;;;;;;5057844;28;20232;-78
2023/08/02 13:15:04;;;;;;;3.10;2.80;;;;;;;;;;5058981;28;20206;-77
2023/08/02 13:17:34;;;;;;;4.85;2.58;;;;;;;;;;5055377;28;20667;-78
2023/08/02 13:20:03;;;;;;;2.90;2.50;;;;;;;;;;5061577;28;20237;-79
2023/08/02 13:22:30;;;;;;;3.00;2.80;;;;;;;;;;5066128;28;20221;-78
2023/08/02 13:24:58;;;;;;;5.38;2.65;;;;;;;;;;5058765;28;20312;-75
2023/08/02 13:27:25;;;;;;;2.83;2.47;;;;;;;;;;5054399;28;20193;-79
2023/08/02 13:29:52;;;;;;;3.92;2.60;;;;;;;;;;5058993;28;20255;-77
2023/08/02 13:32:19;;;;;;;3.08;2.70;;;;;;;;;;5059053;28;20245;-80
2023/08/02 13:34:46;;;;;;;2.92;2.72;;;;;;;;;;5041191;28;20214;-78
2023/08/02 13:37:13;;;;;;;2.92;2.70;;;;;;;;;;5063044;28;20204;-79
2023/08/02 13:39:41;;;;;;;3.08;2.88;;;;;;;;;;5058991;28;20676;-78
2023/08/02 13:42:08;;;;;;;3.40;2.47;;;;;;;;;;5064743;28;20780;-79
2023/08/02 13:44:35;;;;;;;3.45;2.50;;;;;;;;;;5057800;28;20218;-79
2023/08/02 13:47:04;;;;;;;2.55;2.33;;;;;;;;;;5056269;28;20194;-79
2023/08/02 13:49:31;;;;;;;3.80;2.50;;;;;;;;;;5048660;28;20202;-78
2023/08/02 13:52:01;;;;;;;2.35;2.15;;;;;;;;;;5061945;28;20272;-77
2023/08/02 13:54:28;;;;;;;2.70;2.50;;;;;;;;;;5065472;28;20213;-78
2023/08/02 13:56:56;;;;;;;2.50;2.30;;;;;;;;;;5045292;28;20251;-78
2023/08/02 13:59:23;;;;;;;3.58;2.42;;;;;;;;;;5061642;28;20212;-78
2023/08/02 14:01:51;;;;;;;3.20;2.53;;;;;;;;;;5048227;28;20229;-79
2023/08/02 14:04:18;;;;;;;2.70;2.50;;;;;;;;;;5057838;28;20226;-77
2023/08/02 14:06:45;;;;;;;2.92;2.65;;;;;;;;;;5058518;28;20257;-80
2023/08/02 14:09:12;;;;;;;3.42;2.60;;;;;;;;;;5059629;28;20232;-79
2023/08/02 14:11:41;;;;;;;3.97;3.10;;;;;;;;;;5056512;28;20612;-80
2023/08/02 14:14:08;;;;;;;3.35;3.05;;;;;;;;;;5047598;28;20620;-79
2023/08/02 14:16:36;;;;;;;3.33;3.00;;;;;;;;;;5060073;28;20742;-78
2023/08/02 14:19:03;;;;;;;3.53;2.70;;;;;;;;;;5053893;28;20221;-78
2023/08/02 14:21:31;;;;;;;3.08;2.88;;;;;;;;;;5057628;28;20267;-79
2023/08/02 14:23:58;;;;;;;3.60;2.75;;;;;;;;;;5053513;28;20225;-78
2023/08/02 14:26:25;;;;;;;3.08;2.60;;;;;;;;;;5058887;28;20252;-79
2023/08/02 14:28:55;;;;;;;3.22;2.40;;;;;;;;;;5058790;28;20694;-79
2023/08/02 14:31:24;;;;;;;4.05;2.83;;;;;;;;;;5048005;28;20358;-77
2023/08/02 14:33:51;;;;;;;2.55;2.30;;;;;;;;;;5060392;28;20300;-78
2023/08/02 14:36:18;;;;;;;2.85;2.65;;;;;;;;;;5063592;28;20202;-77
2023/08/02 14:38:46;;;;;;;3.40;2.40;;;;;;;;;;5058421;28;20230;-77
2023/08/02 14:41:13;;;;;;;3.00;2.70;;;;;;;;;;5059198;28;20221;-80
2023/08/02 14:43:40;;;;;;;2.88;2.47;;;;;;;;;;5058862;28;20339;-78
2023/08/02 14:46:07;;;;;;;4.50;2.67;;;;;;;;;;5055654;28;20209;-79
2023/08/02 14:48:35;;;;;;;2.83;2.47;;;;;;;;;;5055828;28;20309;-78
2023/08/02 14:51:02;;;;;;;4.82;2.45;;;;;;;;;;5060860;28;20224;-78